sensor_id;sensor_type;location;lat;lon;timestamp;temperature;humidity
20231;DHT22;10274;49.022;9.338;2023-04-03T00:02:25;4.20;1.00
20231;DHT22;10274;49.022;9.338;2023-04-03T00:04:52;4.10;1.00
20231;DHT22;10274;49.022;9.338;2023-04-03T00:07:18;4.20;44.90
20231;DHT22;10274;49.022;9.338;2023-04-03T00:09:45;4.20;99.90
20231;DHT22;10274;49.022;9.338;2023-04-03T00:12:12;4.20;33.50
20231;DHT22;10274;49.022;9.338;2023-04-03T00:14:38;4.10;1.00
20231;DHT22;10274;49.022;9.338;2023-04-03T00:17:05;4.10;99.90
20231;DHT22;10274;49.022;9.338;2023-04-03T00:19:33;4.10;99.90
20231;DHT22;10274;49.022;9.338;2023-04-03T00:22:00;4.00;1.00
20231;DHT22;10274;49.022;9.338;2023-04-03T00:24:27;4.00;1.00
20231;DHT22;10274;49.022;9.338;2023-04-03T00:26:53;3.90;1.00
20231;DHT22;10274;49.022;9.338;2023-04-03T00:29:20;3.90;99.90
20231;DHT22;10274;49.022;9.338;2023-04-03T00:31:47;3.90;99.90
20231;DHT22;10274;49.022;9.338;2023-04-03T00:34:13;3.80;99.90
20231;DHT22;10274;49.022;9.338;2023-04-03T00:36:41;3.90;52.50
20231;DHT22;10274;49.022;9.338;2023-04-03T00:39:08;3.70;1.00
20231;DHT22;10274;49.022;9.338;2023-04-03T00:41:35;3.70;1.00
20231;DHT22;10274;49.022;9.338;2023-04-03T00:44:18;3.80;1.00
20231;DHT22;10274;49.022;9.338;2023-04-03T00:46:45;3.70;99.90
20231;DHT22;10274;49.022;9.338;2023-04-03T00:49:12;3.60;99.90
20231;DHT22;10274;49.022;9.338;2023-04-03T00:51:38;3.60;1.00
20231;DHT22;10274;49.022;9.338;2023-04-03T00:54:07;3.60;99.90
20231;DHT22;10274;49.022;9.338;2023-04-03T00:56:36;3.60;99.90
20231;DHT22;10274;49.022;9.338;2023-04-03T00:59:06;3.50;1.00
20231;DHT22;10274;49.022;9.338;2023-04-03T01:01:34;3.50;1.00
20231;DHT22;10274;49.022;9.338;2023-04-03T01:04:02;3.50;1.00
20231;DHT22;10274;49.022;9.338;2023-04-03T01:06:31;3.40;82.60
20231;DHT22;10274;49.022;9.338;2023-04-03T01:08:59;3.30;99.90
20231;DHT22;10274;49.022;9.338;2023-04-03T01:11:27;3.40;1.00
20231;DHT22;10274;49.022;9.338;2023-04-03T01:13:55;3.30;1.00
20231;DHT22;10274;49.022;9.338;2023-04-03T01:16:21;3.30;1.00
20231;DHT22;10274;49.022;9.338;2023-04-03T01:18:48;3.30;99.90
20231;DHT22;10274;49.022;9.338;2023-04-03T01:21:42;3.40;1.00
20231;DHT22;10274;49.022;9.338;2023-04-03T01:24:23;3.30;1.00
20231;DHT22;10274;49.022;9.338;2023-04-03T01:26:54;3.30;1.00
20231;DHT22;10274;49.022;9.338;2023-04-03T01:29:21;3.40;1.00
20231;DHT22;10274;49.022;9.338;2023-04-03T01:31:52;3.50;1.00
20231;DHT22;10274;49.022;9.338;2023-04-03T01:34:20;3.50;1.00
20231;DHT22;10274;49.022;9.338;2023-04-03T01:36:47;3.40;1.00
20231;DHT22;10274;49.022;9.338;2023-04-03T01:39:14;3.40;1.00
20231;DHT22;10274;49.022;9.338;2023-04-03T01:41:41;3.40;1.00
20231;DHT22;10274;49.022;9.338;2023-04-03T01:44:07;3.20;1.00
20231;DHT22;10274;49.022;9.338;2023-04-03T01:46:34;3.20;1.00
20231;DHT22;10274;49.022;9.338;2023-04-03T01:49:04;3.10;1.00
20231;DHT22;10274;49.022;9.338;2023-04-03T01:51:31;3.00;1.00
20231;DHT22;10274;49.022;9.338;2023-04-03T01:53:58;3.00;1.00
20231;DHT22;10274;49.022;9.338;2023-04-03T01:56:25;3.10;1.00
20231;DHT22;10274;49.022;9.338;2023-04-03T01:58:52;3.10;1.00
20231;DHT22;10274;49.022;9.338;2023-04-03T02:01:18;3.20;1.00
20231;DHT22;10274;49.022;9.338;2023-04-03T02:03:45;3.20;1.00
20231;DHT22;10274;49.022;9.338;2023-04-03T02:06:13;3.10;1.00
20231;DHT22;10274;49.022;9.338;2023-04-03T02:08:40;3.20;1.00
20231;DHT22;10274;49.022;9.338;2023-04-03T02:11:07;3.80;1.00
20231;DHT22;10274;49.022;9.338;2023-04-03T02:13:33;3.30;1.00
20231;DHT22;10274;49.022;9.338;2023-04-03T02:16:06;3.30;1.00
20231;DHT22;10274;49.022;9.338;2023-04-03T02:18:33;3.40;1.00
20231;DHT22;10274;49.022;9.338;2023-04-03T02:20:59;3.40;1.00
20231;DHT22;10274;49.022;9.338;2023-04-03T02:23:27;3.40;1.00
20231;DHT22;10274;49.022;9.338;2023-04-03T02:26:03;3.50;1.00
20231;DHT22;10274;49.022;9.338;2023-04-03T02:28:29;3.40;1.00
20231;DHT22;10274;49.022;9.338;2023-04-03T02:30:56;3.40;1.00
20231;DHT22;10274;49.022;9.338;2023-04-03T02:33:23;3.40;1.00
20231;DHT22;10274;49.022;9.338;2023-04-03T02:35:52;3.40;1.00
20231;DHT22;10274;49.022;9.338;2023-04-03T02:38:19;3.40;1.00
20231;DHT22;10274;49.022;9.338;2023-04-03T02:40:47;3.30;1.00
20231;DHT22;10274;49.022;9.338;2023-04-03T02:43:15;3.30;1.00
20231;DHT22;10274;49.022;9.338;2023-04-03T02:45:41;3.30;1.00
20231;DHT22;10274;49.022;9.338;2023-04-03T02:48:08;3.30;1.00
20231;DHT22;10274;49.022;9.338;2023-04-03T02:50:35;3.40;1.00
20231;DHT22;10274;49.022;9.338;2023-04-03T02:53:02;3.40;1.00
20231;DHT22;10274;49.022;9.338;2023-04-03T02:55:28;3.40;1.00
20231;DHT22;10274;49.022;9.338;2023-04-03T02:57:56;3.40;1.00
20231;DHT22;10274;49.022;9.338;2023-04-03T03:00:23;3.40;1.00
20231;DHT22;10274;49.022;9.338;2023-04-03T03:02:50;3.50;1.00
20231;DHT22;10274;49.022;9.338;2023-04-03T03:05:16;3.40;1.00
20231;DHT22;10274;49.022;9.338;2023-04-03T03:07:43;3.50;1.00
20231;DHT22;10274;49.022;9.338;2023-04-03T03:10:10;3.40;1.00
20231;DHT22;10274;49.022;9.338;2023-04-03T03:12:36;3.40;1.00
20231;DHT22;10274;49.022;9.338;2023-04-03T03:15:06;3.50;1.00
20231;DHT22;10274;49.022;9.338;2023-04-03T03:17:32;3.50;1.00
20231;DHT22;10274;49.022;9.338;2023-04-03T03:19:59;3.50;1.00
20231;DHT22;10274;49.022;9.338;2023-04-03T03:22:26;3.50;1.00
20231;DHT22;10274;49.022;9.338;2023-04-03T03:24:53;3.60;1.00
20231;DHT22;10274;49.022;9.338;2023-04-03T03:27:20;3.60;1.00
20231;DHT22;10274;49.022;9.338;2023-04-03T03:29:47;3.60;1.00
20231;DHT22;10274;49.022;9.338;2023-04-03T03:32:15;3.60;1.00
20231;DHT22;10274;49.022;9.338;2023-04-03T03:34:41;3.60;1.00
20231;DHT22;10274;49.022;9.338;2023-04-03T03:37:08;3.60;1.00
20231;DHT22;10274;49.022;9.338;2023-04-03T03:39:35;3.40;1.00
20231;DHT22;10274;49.022;9.338;2023-04-03T03:42:01;3.40;1.00
20231;DHT22;10274;49.022;9.338;2023-04-03T03:44:28;3.40;1.00
20231;DHT22;10274;49.022;9.338;2023-04-03T03:46:55;3.40;1.00
20231;DHT22;10274;49.022;9.338;2023-04-03T03:49:23;3.40;1.00
20231;DHT22;10274;49.022;9.338;2023-04-03T03:51:50;3.50;1.00
20231;DHT22;10274;49.022;9.338;2023-04-03T03:54:17;3.50;1.00
20231;DHT22;10274;49.022;9.338;2023-04-03T03:56:44;3.50;1.00
20231;DHT22;10274;49.022;9.338;2023-04-03T03:59:11;3.40;1.00
20231;DHT22;10274;49.022;9.338;2023-04-03T04:01:38;3.50;1.00
20231;DHT22;10274;49.022;9.338;2023-04-03T04:04:05;3.40;1.00
20231;DHT22;10274;49.022;9.338;2023-04-03T04:06:33;3.40;1.00
20231;DHT22;10274;49.022;9.338;2023-04-03T04:09:00;3.40;1.00
20231;DHT22;10274;49.022;9.338;2023-04-03T04:11:26;3.40;1.00
20231;DHT22;10274;49.022;9.338;2023-04-03T04:13:53;3.40;1.00
20231;DHT22;10274;49.022;9.338;2023-04-03T04:16:20;3.10;1.00
20231;DHT22;10274;49.022;9.338;2023-04-03T04:18:46;3.10;1.00
20231;DHT22;10274;49.022;9.338;2023-04-03T04:21:13;3.00;1.00
20231;DHT22;10274;49.022;9.338;2023-04-03T04:23:41;3.10;1.00
20231;DHT22;10274;49.022;9.338;2023-04-03T04:26:08;3.00;1.00
20231;DHT22;10274;49.022;9.338;2023-04-03T04:28:34;3.00;1.00
20231;DHT22;10274;49.022;9.338;2023-04-03T04:31:01;3.10;1.00
20231;DHT22;10274;49.022;9.338;2023-04-03T04:33:28;3.20;1.00
20231;DHT22;10274;49.022;9.338;2023-04-03T04:35:55;3.10;1.00
20231;DHT22;10274;49.022;9.338;2023-04-03T04:38:21;3.00;1.00
20231;DHT22;10274;49.022;9.338;2023-04-03T04:40:49;2.80;1.00
20231;DHT22;10274;49.022;9.338;2023-04-03T04:43:16;2.60;1.00
20231;DHT22;10274;49.022;9.338;2023-04-03T04:45:43;2.60;1.00
20231;DHT22;10274;49.022;9.338;2023-04-03T04:48:10;2.60;1.00
20231;DHT22;10274;49.022;9.338;2023-04-03T04:50:37;2.70;1.00
20231;DHT22;10274;49.022;9.338;2023-04-03T04:53:04;2.70;1.00
20231;DHT22;10274;49.022;9.338;2023-04-03T04:55:30;2.70;1.00
20231;DHT22;10274;49.022;9.338;2023-04-03T04:57:58;2.70;1.00
20231;DHT22;10274;49.022;9.338;2023-04-03T05:00:25;2.60;1.00
20231;DHT22;10274;49.022;9.338;2023-04-03T05:02:52;2.70;1.00
20231;DHT22;10274;49.022;9.338;2023-04-03T05:05:18;2.70;1.00
20231;DHT22;10274;49.022;9.338;2023-04-03T05:07:45;2.70;1.00
20231;DHT22;10274;49.022;9.338;2023-04-03T05:10:12;2.70;1.00
20231;DHT22;10274;49.022;9.338;2023-04-03T05:12:38;2.60;1.00
20231;DHT22;10274;49.022;9.338;2023-04-03T05:15:08;2.60;1.00
20231;DHT22;10274;49.022;9.338;2023-04-03T05:17:35;2.70;1.00
20231;DHT22;10274;49.022;9.338;2023-04-03T05:20:02;2.60;1.00
20231;DHT22;10274;49.022;9.338;2023-04-03T05:22:29;2.70;1.00
20231;DHT22;10274;49.022;9.338;2023-04-03T05:24:55;2.70;1.00
20231;DHT22;10274;49.022;9.338;2023-04-03T05:27:23;2.70;1.00
20231;DHT22;10274;49.022;9.338;2023-04-03T05:29:49;2.70;1.00
20231;DHT22;10274;49.022;9.338;2023-04-03T05:32:17;2.80;1.00
20231;DHT22;10274;49.022;9.338;2023-04-03T05:34:44;3.00;1.00
20231;DHT22;10274;49.022;9.338;2023-04-03T05:37:11;3.10;1.00
20231;DHT22;10274;49.022;9.338;2023-04-03T05:39:38;3.10;1.00
20231;DHT22;10274;49.022;9.338;2023-04-03T05:42:06;3.10;1.00
20231;DHT22;10274;49.022;9.338;2023-04-03T05:44:33;3.20;1.00
20231;DHT22;10274;49.022;9.338;2023-04-03T05:47:00;3.20;1.00
20231;DHT22;10274;49.022;9.338;2023-04-03T05:49:28;3.30;1.00
20231;DHT22;10274;49.022;9.338;2023-04-03T05:51:55;3.40;1.00
20231;DHT22;10274;49.022;9.338;2023-04-03T05:54:23;3.30;1.00
20231;DHT22;10274;49.022;9.338;2023-04-03T05:56:51;3.50;1.00
20231;DHT22;10274;49.022;9.338;2023-04-03T05:59:17;3.60;99.90
20231;DHT22;10274;49.022;9.338;2023-04-03T06:01:44;3.70;99.90
20231;DHT22;10274;49.022;9.338;2023-04-03T06:04:12;3.70;1.00
20231;DHT22;10274;49.022;9.338;2023-04-03T06:06:48;3.70;1.00
20231;DHT22;10274;49.022;9.338;2023-04-03T06:09:15;3.80;1.00
20231;DHT22;10274;49.022;9.338;2023-04-03T06:11:42;3.90;99.90
20231;DHT22;10274;49.022;9.338;2023-04-03T06:14:10;4.00;1.00
20231;DHT22;10274;49.022;9.338;2023-04-03T06:16:37;4.10;99.90
20231;DHT22;10274;49.022;9.338;2023-04-03T06:19:04;4.30;99.90
20231;DHT22;10274;49.022;9.338;2023-04-03T06:21:31;4.20;99.90
20231;DHT22;10274;49.022;9.338;2023-04-03T06:23:59;4.20;1.00
20231;DHT22;10274;49.022;9.338;2023-04-03T06:26:27;4.20;99.90
20231;DHT22;10274;49.022;9.338;2023-04-03T06:28:54;4.30;99.90
20231;DHT22;10274;49.022;9.338;2023-04-03T06:31:21;4.40;1.00
20231;DHT22;10274;49.022;9.338;2023-04-03T06:33:48;4.60;99.90
20231;DHT22;10274;49.022;9.338;2023-04-03T06:36:15;4.60;99.90
20231;DHT22;10274;49.022;9.338;2023-04-03T06:38:45;4.70;1.00
20231;DHT22;10274;49.022;9.338;2023-04-03T06:41:13;4.80;1.00
20231;DHT22;10274;49.022;9.338;2023-04-03T06:43:40;4.80;1.00
20231;DHT22;10274;49.022;9.338;2023-04-03T06:46:08;5.00;99.90
20231;DHT22;10274;49.022;9.338;2023-04-03T06:48:37;5.10;1.00
20231;DHT22;10274;49.022;9.338;2023-04-03T06:51:04;5.20;1.00
20231;DHT22;10274;49.022;9.338;2023-04-03T06:53:31;5.30;99.90
20231;DHT22;10274;49.022;9.338;2023-04-03T06:55:57;5.20;42.10
20231;DHT22;10274;49.022;9.338;2023-04-03T06:58:25;5.40;1.00
20231;DHT22;10274;49.022;9.338;2023-04-03T07:00:52;5.40;1.00
20231;DHT22;10274;49.022;9.338;2023-04-03T07:03:19;5.50;99.90
20231;DHT22;10274;49.022;9.338;2023-04-03T07:05:46;5.60;1.00
20231;DHT22;10274;49.022;9.338;2023-04-03T07:08:13;5.50;99.90
20231;DHT22;10274;49.022;9.338;2023-04-03T07:10:40;5.60;1.00
20231;DHT22;10274;49.022;9.338;2023-04-03T07:13:06;5.80;1.00
20231;DHT22;10274;49.022;9.338;2023-04-03T07:15:34;5.80;1.00
20231;DHT22;10274;49.022;9.338;2023-04-03T07:18:02;5.90;99.90
20231;DHT22;10274;49.022;9.338;2023-04-03T07:20:29;6.00;99.90
20231;DHT22;10274;49.022;9.338;2023-04-03T07:22:56;6.00;1.00
20231;DHT22;10274;49.022;9.338;2023-04-03T07:25:23;6.40;1.00
20231;DHT22;10274;49.022;9.338;2023-04-03T07:27:50;6.30;1.00
20231;DHT22;10274;49.022;9.338;2023-04-03T07:30:16;6.30;99.90
20231;DHT22;10274;49.022;9.338;2023-04-03T07:32:44;6.20;1.00
20231;DHT22;10274;49.022;9.338;2023-04-03T07:35:11;6.30;99.90
20231;DHT22;10274;49.022;9.338;2023-04-03T07:37:38;6.40;1.00
20231;DHT22;10274;49.022;9.338;2023-04-03T07:40:06;6.50;1.00
20231;DHT22;10274;49.022;9.338;2023-04-03T07:42:34;6.10;98.70
20231;DHT22;10274;49.022;9.338;2023-04-03T07:45:01;6.10;99.90
20231;DHT22;10274;49.022;9.338;2023-04-03T07:47:28;6.30;1.00
20231;DHT22;10274;49.022;9.338;2023-04-03T07:49:57;6.20;1.00
20231;DHT22;10274;49.022;9.338;2023-04-03T07:52:24;6.10;1.00
20231;DHT22;10274;49.022;9.338;2023-04-03T07:54:50;6.20;1.00
20231;DHT22;10274;49.022;9.338;2023-04-03T07:57:17;5.90;1.00
20231;DHT22;10274;49.022;9.338;2023-04-03T07:59:44;6.10;1.00
20231;DHT22;10274;49.022;9.338;2023-04-03T08:02:11;6.20;1.00
20231;DHT22;10274;49.022;9.338;2023-04-03T08:04:38;6.30;1.00
20231;DHT22;10274;49.022;9.338;2023-04-03T08:07:06;6.30;1.00
20231;DHT22;10274;49.022;9.338;2023-04-03T08:09:33;6.40;1.00
20231;DHT22;10274;49.022;9.338;2023-04-03T08:12:00;6.50;99.90
20231;DHT22;10274;49.022;9.338;2023-04-03T08:14:27;6.40;99.90
20231;DHT22;10274;49.022;9.338;2023-04-03T08:16:53;6.40;99.90
20231;DHT22;10274;49.022;9.338;2023-04-03T08:19:20;6.60;99.90
20231;DHT22;10274;49.022;9.338;2023-04-03T08:21:47;6.70;32.70
20231;DHT22;10274;49.022;9.338;2023-04-03T08:24:15;6.70;1.00
20231;DHT22;10274;49.022;9.338;2023-04-03T08:26:41;6.90;99.90
20231;DHT22;10274;49.022;9.338;2023-04-03T08:29:08;6.80;86.70
20231;DHT22;10274;49.022;9.338;2023-04-03T08:31:35;7.10;30.20
20231;DHT22;10274;49.022;9.338;2023-04-03T08:34:02;7.10;99.90
20231;DHT22;10274;49.022;9.338;2023-04-03T08:36:29;7.10;1.00
20231;DHT22;10274;49.022;9.338;2023-04-03T08:38:57;7.40;1.00
20231;DHT22;10274;49.022;9.338;2023-04-03T08:41:29;7.50;99.90
20231;DHT22;10274;49.022;9.338;2023-04-03T08:44:02;7.60;1.00
20231;DHT22;10274;49.022;9.338;2023-04-03T08:46:40;7.70;1.00
20231;DHT22;10274;49.022;9.338;2023-04-03T08:49:14;7.50;99.90
20231;DHT22;10274;49.022;9.338;2023-04-03T08:51:46;7.70;99.90
20231;DHT22;10274;49.022;9.338;2023-04-03T08:54:24;8.50;1.00
20231;DHT22;10274;49.022;9.338;2023-04-03T08:56:56;8.20;1.00
20231;DHT22;10274;49.022;9.338;2023-04-03T08:59:28;8.20;1.00
20231;DHT22;10274;49.022;9.338;2023-04-03T09:01:57;8.30;1.00
20231;DHT22;10274;49.022;9.338;2023-04-03T09:04:27;8.40;1.00
20231;DHT22;10274;49.022;9.338;2023-04-03T09:06:57;8.20;1.00
20231;DHT22;10274;49.022;9.338;2023-04-03T09:09:31;8.40;1.00
20231;DHT22;10274;49.022;9.338;2023-04-03T09:12:06;8.70;1.00
20231;DHT22;10274;49.022;9.338;2023-04-03T09:14:42;8.80;1.00
20231;DHT22;10274;49.022;9.338;2023-04-03T09:17:15;8.50;1.00
20231;DHT22;10274;49.022;9.338;2023-04-03T09:19:51;8.90;1.00
20231;DHT22;10274;49.022;9.338;2023-04-03T09:22:22;9.20;99.90
20231;DHT22;10274;49.022;9.338;2023-04-03T09:24:55;9.00;1.00
20231;DHT22;10274;49.022;9.338;2023-04-03T09:27:25;10.20;99.90
20231;DHT22;10274;49.022;9.338;2023-04-03T09:29:53;9.40;99.90
20231;DHT22;10274;49.022;9.338;2023-04-03T09:32:25;8.60;99.90
20231;DHT22;10274;49.022;9.338;2023-04-03T09:34:54;9.30;99.90
20231;DHT22;10274;49.022;9.338;2023-04-03T09:37:37;9.60;99.90
20231;DHT22;10274;49.022;9.338;2023-04-03T09:40:05;9.20;99.90
20231;DHT22;10274;49.022;9.338;2023-04-03T09:42:39;9.30;99.90
20231;DHT22;10274;49.022;9.338;2023-04-03T09:45:22;9.70;99.90
20231;DHT22;10274;49.022;9.338;2023-04-03T09:47:49;10.00;99.90
20231;DHT22;10274;49.022;9.338;2023-04-03T09:50:30;9.60;99.90
20231;DHT22;10274;49.022;9.338;2023-04-03T09:52:57;11.10;99.90
20231;DHT22;10274;49.022;9.338;2023-04-03T09:55:25;10.60;99.90
20231;DHT22;10274;49.022;9.338;2023-04-03T09:57:58;9.60;73.80
20231;DHT22;10274;49.022;9.338;2023-04-03T10:00:27;10.50;99.90
20231;DHT22;10274;49.022;9.338;2023-04-03T10:02:56;9.50;11.50
20231;DHT22;10274;49.022;9.338;2023-04-03T10:05:32;9.20;13.70
20231;DHT22;10274;49.022;9.338;2023-04-03T10:08:09;8.90;51.00
20231;DHT22;10274;49.022;9.338;2023-04-03T10:10:36;8.90;99.90
20231;DHT22;10274;49.022;9.338;2023-04-03T10:13:11;8.60;99.90
20231;DHT22;10274;49.022;9.338;2023-04-03T10:15:41;8.70;99.90
20231;DHT22;10274;49.022;9.338;2023-04-03T10:18:26;8.60;99.90
20231;DHT22;10274;49.022;9.338;2023-04-03T10:20:58;8.60;99.90
20231;DHT22;10274;49.022;9.338;2023-04-03T10:23:31;8.30;99.90
20231;DHT22;10274;49.022;9.338;2023-04-03T10:28:38;8.00;99.90
20231;DHT22;10274;49.022;9.338;2023-04-03T10:31:14;8.30;99.90
20231;DHT22;10274;49.022;9.338;2023-04-03T10:33:52;8.50;99.90
20231;DHT22;10274;49.022;9.338;2023-04-03T10:36:31;8.30;99.90
20231;DHT22;10274;49.022;9.338;2023-04-03T10:39:04;8.00;99.90
20231;DHT22;10274;49.022;9.338;2023-04-03T10:41:46;8.10;99.90
20231;DHT22;10274;49.022;9.338;2023-04-03T10:44:19;8.10;99.90
20231;DHT22;10274;49.022;9.338;2023-04-03T10:46:49;8.10;99.90
20231;DHT22;10274;49.022;9.338;2023-04-03T10:49:25;8.40;99.90
20231;DHT22;10274;49.022;9.338;2023-04-03T10:52:02;8.40;99.90
20231;DHT22;10274;49.022;9.338;2023-04-03T10:54:36;8.30;99.90
20231;DHT22;10274;49.022;9.338;2023-04-03T10:57:06;8.20;99.90
20231;DHT22;10274;49.022;9.338;2023-04-03T10:59:38;8.20;99.90
20231;DHT22;10274;49.022;9.338;2023-04-03T11:02:11;8.10;99.90
20231;DHT22;10274;49.022;9.338;2023-04-03T11:04:43;8.10;99.90
20231;DHT22;10274;49.022;9.338;2023-04-03T11:07:15;8.00;99.90
20231;DHT22;10274;49.022;9.338;2023-04-03T11:09:44;7.90;99.90
20231;DHT22;10274;49.022;9.338;2023-04-03T11:12:17;8.00;99.90
20231;DHT22;10274;49.022;9.338;2023-04-03T11:14:47;8.00;99.90
20231;DHT22;10274;49.022;9.338;2023-04-03T11:17:26;8.00;86.30
20231;DHT22;10274;49.022;9.338;2023-04-03T11:19:59;7.90;96.30
20231;DHT22;10274;49.022;9.338;2023-04-03T11:22:30;7.90;93.00
20231;DHT22;10274;49.022;9.338;2023-04-03T11:25:04;8.00;99.90
20231;DHT22;10274;49.022;9.338;2023-04-03T11:27:38;7.80;60.60
20231;DHT22;10274;49.022;9.338;2023-04-03T11:30:14;7.80;99.70
20231;DHT22;10274;49.022;9.338;2023-04-03T11:33:08;7.80;99.90
20231;DHT22;10274;49.022;9.338;2023-04-03T11:35:41;7.80;99.90
20231;DHT22;10274;49.022;9.338;2023-04-03T11:38:16;7.60;29.40
20231;DHT22;10274;49.022;9.338;2023-04-03T11:40:45;7.50;63.20
20231;DHT22;10274;49.022;9.338;2023-04-03T11:43:22;7.60;90.20
20231;DHT22;10274;49.022;9.338;2023-04-03T11:45:54;7.60;75.80
20231;DHT22;10274;49.022;9.338;2023-04-03T11:48:50;7.50;91.60
20231;DHT22;10274;49.022;9.338;2023-04-03T11:51:42;7.70;99.90
20231;DHT22;10274;49.022;9.338;2023-04-03T11:54:44;7.80;64.80
20231;DHT22;10274;49.022;9.338;2023-04-03T11:57:43;8.00;77.60
20231;DHT22;10274;49.022;9.338;2023-04-03T12:00:46;8.10;67.30
20231;DHT22;10274;49.022;9.338;2023-04-03T12:09:35;8.80;1.00
20231;DHT22;10274;49.022;9.338;2023-04-03T12:12:38;8.80;1.00
20231;DHT22;10274;49.022;9.338;2023-04-03T12:15:18;8.70;1.00
20231;DHT22;10274;49.022;9.338;2023-04-03T12:17:46;8.50;1.00
20231;DHT22;10274;49.022;9.338;2023-04-03T12:23:28;8.50;1.00
20231;DHT22;10274;49.022;9.338;2023-04-03T12:26:05;8.70;1.00
20231;DHT22;10274;49.022;9.338;2023-04-03T12:28:39;8.70;1.00
20231;DHT22;10274;49.022;9.338;2023-04-03T12:31:08;8.60;1.00
20231;DHT22;10274;49.022;9.338;2023-04-03T12:33:46;8.60;1.00
20231;DHT22;10274;49.022;9.338;2023-04-03T12:36:28;8.60;1.00
20231;DHT22;10274;49.022;9.338;2023-04-03T12:39:13;8.40;1.00
20231;DHT22;10274;49.022;9.338;2023-04-03T12:41:51;9.00;1.00
20231;DHT22;10274;49.022;9.338;2023-04-03T12:44:36;9.10;1.00
20231;DHT22;10274;49.022;9.338;2023-04-03T12:47:16;9.20;1.00
20231;DHT22;10274;49.022;9.338;2023-04-03T12:49:46;9.70;1.00
20231;DHT22;10274;49.022;9.338;2023-04-03T12:52:20;10.00;1.00
20231;DHT22;10274;49.022;9.338;2023-04-03T12:54:49;10.40;1.00
20231;DHT22;10274;49.022;9.338;2023-04-03T12:57:19;11.00;1.00
20231;DHT22;10274;49.022;9.338;2023-04-03T12:59:47;11.40;1.00
20231;DHT22;10274;49.022;9.338;2023-04-03T13:02:21;11.70;1.00
20231;DHT22;10274;49.022;9.338;2023-04-03T13:04:49;11.30;1.00
20231;DHT22;10274;49.022;9.338;2023-04-03T13:07:21;10.70;1.00
20231;DHT22;10274;49.022;9.338;2023-04-03T13:09:56;10.70;1.00
20231;DHT22;10274;49.022;9.338;2023-04-03T13:12:24;10.50;1.00
20231;DHT22;10274;49.022;9.338;2023-04-03T13:14:52;9.50;1.00
20231;DHT22;10274;49.022;9.338;2023-04-03T13:17:19;9.20;1.00
20231;DHT22;10274;49.022;9.338;2023-04-03T13:19:47;9.00;1.00
20231;DHT22;10274;49.022;9.338;2023-04-03T13:22:26;9.10;1.00
20231;DHT22;10274;49.022;9.338;2023-04-03T13:24:54;9.00;1.00
20231;DHT22;10274;49.022;9.338;2023-04-03T13:27:22;9.20;1.00
20231;DHT22;10274;49.022;9.338;2023-04-03T13:29:52;9.80;1.00
20231;DHT22;10274;49.022;9.338;2023-04-03T13:32:22;11.10;1.00
20231;DHT22;10274;49.022;9.338;2023-04-03T13:34:50;11.90;1.00
20231;DHT22;10274;49.022;9.338;2023-04-03T13:37:23;12.40;1.00
20231;DHT22;10274;49.022;9.338;2023-04-03T13:40:00;12.70;1.00
20231;DHT22;10274;49.022;9.338;2023-04-03T13:42:30;12.40;1.00
20231;DHT22;10274;49.022;9.338;2023-04-03T13:45:18;11.70;1.00
20231;DHT22;10274;49.022;9.338;2023-04-03T13:47:47;10.90;1.00
20231;DHT22;10274;49.022;9.338;2023-04-03T13:50:16;10.00;1.00
20231;DHT22;10274;49.022;9.338;2023-04-03T13:52:46;9.80;1.00
20231;DHT22;10274;49.022;9.338;2023-04-03T13:55:20;10.00;1.00
20231;DHT22;10274;49.022;9.338;2023-04-03T13:57:55;9.60;1.00
20231;DHT22;10274;49.022;9.338;2023-04-03T14:00:34;9.70;1.00
20231;DHT22;10274;49.022;9.338;2023-04-03T14:03:12;11.50;1.00
20231;DHT22;10274;49.022;9.338;2023-04-03T14:05:39;11.20;1.00
20231;DHT22;10274;49.022;9.338;2023-04-03T14:08:06;10.50;1.00
20231;DHT22;10274;49.022;9.338;2023-04-03T14:10:33;9.90;1.00
20231;DHT22;10274;49.022;9.338;2023-04-03T14:13:00;9.20;1.00
20231;DHT22;10274;49.022;9.338;2023-04-03T14:15:30;8.90;1.00
20231;DHT22;10274;49.022;9.338;2023-04-03T14:17:57;8.70;1.00
20231;DHT22;10274;49.022;9.338;2023-04-03T14:20:27;9.40;1.00
20231;DHT22;10274;49.022;9.338;2023-04-03T14:22:54;11.00;1.00
20231;DHT22;10274;49.022;9.338;2023-04-03T14:25:21;12.00;1.00
20231;DHT22;10274;49.022;9.338;2023-04-03T14:27:51;12.40;1.00
20231;DHT22;10274;49.022;9.338;2023-04-03T14:30:22;12.30;1.00
20231;DHT22;10274;49.022;9.338;2023-04-03T14:32:50;12.00;1.00
20231;DHT22;10274;49.022;9.338;2023-04-03T14:35:18;11.80;1.00
20231;DHT22;10274;49.022;9.338;2023-04-03T14:37:45;11.00;1.00
20231;DHT22;10274;49.022;9.338;2023-04-03T14:40:15;10.40;1.00
20231;DHT22;10274;49.022;9.338;2023-04-03T14:42:42;9.90;1.00
20231;DHT22;10274;49.022;9.338;2023-04-03T14:45:11;9.50;1.00
20231;DHT22;10274;49.022;9.338;2023-04-03T14:47:40;10.10;1.00
20231;DHT22;10274;49.022;9.338;2023-04-03T14:50:15;10.70;1.00
20231;DHT22;10274;49.022;9.338;2023-04-03T14:52:43;11.00;1.00
20231;DHT22;10274;49.022;9.338;2023-04-03T14:55:20;10.80;1.00
20231;DHT22;10274;49.022;9.338;2023-04-03T14:57:47;11.10;1.00
20231;DHT22;10274;49.022;9.338;2023-04-03T15:00:16;11.20;1.00
20231;DHT22;10274;49.022;9.338;2023-04-03T15:02:43;10.70;1.00
20231;DHT22;10274;49.022;9.338;2023-04-03T15:05:12;11.10;1.00
20231;DHT22;10274;49.022;9.338;2023-04-03T15:07:41;11.60;1.00
20231;DHT22;10274;49.022;9.338;2023-04-03T15:10:16;11.00;1.00
20231;DHT22;10274;49.022;9.338;2023-04-03T15:12:44;10.30;1.00
20231;DHT22;10274;49.022;9.338;2023-04-03T15:15:12;9.80;1.00
20231;DHT22;10274;49.022;9.338;2023-04-03T15:17:38;9.20;1.00
20231;DHT22;10274;49.022;9.338;2023-04-03T15:20:14;9.00;1.00
20231;DHT22;10274;49.022;9.338;2023-04-03T15:22:40;8.70;1.00
20231;DHT22;10274;49.022;9.338;2023-04-03T15:25:08;9.10;1.00
20231;DHT22;10274;49.022;9.338;2023-04-03T15:27:35;9.50;1.00
20231;DHT22;10274;49.022;9.338;2023-04-03T15:30:03;9.40;1.00
20231;DHT22;10274;49.022;9.338;2023-04-03T15:32:30;9.70;1.00
20231;DHT22;10274;49.022;9.338;2023-04-03T15:34:56;10.30;1.00
20231;DHT22;10274;49.022;9.338;2023-04-03T15:37:25;10.70;1.00
20231;DHT22;10274;49.022;9.338;2023-04-03T15:39:51;10.70;1.00
20231;DHT22;10274;49.022;9.338;2023-04-03T15:42:18;10.10;1.00
20231;DHT22;10274;49.022;9.338;2023-04-03T15:44:45;9.70;1.00
20231;DHT22;10274;49.022;9.338;2023-04-03T15:47:11;9.50;1.00
20231;DHT22;10274;49.022;9.338;2023-04-03T15:49:38;9.20;1.00
20231;DHT22;10274;49.022;9.338;2023-04-03T15:52:05;9.30;1.00
20231;DHT22;10274;49.022;9.338;2023-04-03T15:54:33;9.00;1.00
20231;DHT22;10274;49.022;9.338;2023-04-03T15:57:00;8.70;1.00
20231;DHT22;10274;49.022;9.338;2023-04-03T15:59:27;8.40;1.00
20231;DHT22;10274;49.022;9.338;2023-04-03T16:01:54;8.50;1.00
20231;DHT22;10274;49.022;9.338;2023-04-03T16:04:21;8.30;1.00
20231;DHT22;10274;49.022;9.338;2023-04-03T16:06:48;8.20;1.00
20231;DHT22;10274;49.022;9.338;2023-04-03T16:09:15;8.50;1.00
20231;DHT22;10274;49.022;9.338;2023-04-03T16:11:43;8.80;1.00
20231;DHT22;10274;49.022;9.338;2023-04-03T16:14:10;9.00;1.00
20231;DHT22;10274;49.022;9.338;2023-04-03T16:16:37;9.10;1.00
20231;DHT22;10274;49.022;9.338;2023-04-03T16:19:04;9.20;1.00
20231;DHT22;10274;49.022;9.338;2023-04-03T16:21:32;9.20;1.00
20231;DHT22;10274;49.022;9.338;2023-04-03T16:23:59;8.90;1.00